<?xml version="1.0" encoding="UTF-8" standalone="no" ?>
<gpx xmlns="http://www.topografix.com/GPX/1/1" xmlns:xsi="http://www.w3.org/2001/XMLSchema-instance" xsi:schemaLocation="http://www.topografix.com/GPX/1/1 http://www.topografix.com/GPX/1/1/gpx.xsd" version="1.1" creator="VisuGPX - https://www.visugpx.com">
  <metadata>
    <name>L'Abbaye de Fontcaude</name>
  </metadata>
  <wpt lat="43.43699" lon="3.07196">
    <ele>54</ele>
    <name><![CDATA[Parking barrière du Vailladou]]></name>
  </wpt>
  <wpt lat="43.4287" lon="3.07006">
    <ele>158</ele>
    <name><![CDATA[Les Pradasses]]></name>
  </wpt>
  <wpt lat="43.42321" lon="3.06899">
    <ele>183</ele>
    <name><![CDATA[Carrefour multiple]]></name>
  </wpt>
  <wpt lat="43.41923" lon="3.05936">
    <ele>192</ele>
    <name><![CDATA[D134E1]]></name>
  </wpt>
  <wpt lat="43.42659" lon="3.05169">
    <ele>154</ele>
    <name><![CDATA[Carrefour ruisseau]]></name>
  </wpt>
  <wpt lat="43.42985" lon="3.0491">
    <ele>90</ele>
    <name><![CDATA[Ruisseau de Rhonel]]></name>
  </wpt>
  <wpt lat="43.42768" lon="3.03208">
    <ele>149</ele>
    <name><![CDATA[Cazedarnes le Bas]]></name>
  </wpt>
  <wpt lat="43.43518" lon="3.02831">
    <ele>211</ele>
    <name><![CDATA[Vallongue]]></name>
  </wpt>
  <wpt lat="43.43959" lon="3.04771">
    <ele>149</ele>
    <name><![CDATA[Carrefour à 3 directions]]></name>
  </wpt>
  <wpt lat="43.43909" lon="3.05586">
    <ele>173</ele>
    <name><![CDATA[Clairière]]></name>
  </wpt>
  <wpt lat="43.43906" lon="3.06174">
    <ele>153</ele>
    <name><![CDATA[Lesc Planels]]></name>
  </wpt>
  <wpt lat="43.4406" lon="3.06881">
    <ele>54</ele>
    <name><![CDATA[Route désafectée]]></name>
  </wpt>
  <wpt lat="43.437" lon="3.07176">
    <ele>53</ele>
    <name><![CDATA[Parking barrière du Vailladou]]></name>
  </wpt>
  <trk>
    <name><![CDATA[L'Abbaye de Fontcaude]]></name>
    <trkseg>
      <trkpt lat="43.43699" lon="3.07196">
        <ele>54</ele>
        <time>2024-02-29T09:16:25+01:00</time>
      </trkpt>
      <trkpt lat="43.43695" lon="3.07227">
        <ele>61</ele>
        <time>2024-02-29T09:17:07+01:00</time>
      </trkpt>
      <trkpt lat="43.43669" lon="3.07226">
        <ele>60</ele>
        <time>2024-02-29T09:17:36+01:00</time>
      </trkpt>
      <trkpt lat="43.4365" lon="3.07244">
        <ele>61</ele>
        <time>2024-02-29T09:18:00+01:00</time>
      </trkpt>
      <trkpt lat="43.43633" lon="3.07269">
        <ele>64</ele>
        <time>2024-02-29T09:18:33+01:00</time>
      </trkpt>
      <trkpt lat="43.43619" lon="3.073">
        <ele>68</ele>
        <time>2024-02-29T09:19:02+01:00</time>
      </trkpt>
      <trkpt lat="43.43609" lon="3.07331">
        <ele>70</ele>
        <time>2024-02-29T09:19:36+01:00</time>
      </trkpt>
      <trkpt lat="43.43588" lon="3.07348">
        <ele>70</ele>
        <time>2024-02-29T09:20:11+01:00</time>
      </trkpt>
      <trkpt lat="43.43579" lon="3.07377">
        <ele>71</ele>
        <time>2024-02-29T09:20:30+01:00</time>
      </trkpt>
      <trkpt lat="43.43565" lon="3.07408">
        <ele>74</ele>
        <time>2024-02-29T09:21:08+01:00</time>
      </trkpt>
      <trkpt lat="43.43545" lon="3.07426">
        <ele>74</ele>
        <time>2024-02-29T09:21:32+01:00</time>
      </trkpt>
      <trkpt lat="43.43521" lon="3.07437">
        <ele>75</ele>
        <time>2024-02-29T09:22:00+01:00</time>
      </trkpt>
      <trkpt lat="43.43497" lon="3.07441">
        <ele>76</ele>
        <time>2024-02-29T09:22:25+01:00</time>
      </trkpt>
      <trkpt lat="43.43473" lon="3.07444">
        <ele>78</ele>
        <time>2024-02-29T09:22:49+01:00</time>
      </trkpt>
      <trkpt lat="43.43454" lon="3.07461">
        <ele>79</ele>
        <time>2024-02-29T09:23:18+01:00</time>
      </trkpt>
      <trkpt lat="43.43433" lon="3.0748">
        <ele>81</ele>
        <time>2024-02-29T09:24:00+01:00</time>
      </trkpt>
      <trkpt lat="43.43412" lon="3.07493">
        <ele>86</ele>
        <time>2024-02-29T09:24:24+01:00</time>
      </trkpt>
      <trkpt lat="43.4339" lon="3.075">
        <ele>95</ele>
        <time>2024-02-29T09:24:55+01:00</time>
      </trkpt>
      <trkpt lat="43.43381" lon="3.07534">
        <ele>95</ele>
        <time>2024-02-29T09:25:24+01:00</time>
      </trkpt>
      <trkpt lat="43.43368" lon="3.07572">
        <ele>97</ele>
        <time>2024-02-29T09:25:55+01:00</time>
      </trkpt>
      <trkpt lat="43.43341" lon="3.0758">
        <ele>99</ele>
        <time>2024-02-29T09:26:25+01:00</time>
      </trkpt>
      <trkpt lat="43.43321" lon="3.07603">
        <ele>102</ele>
        <time>2024-02-29T09:26:55+01:00</time>
      </trkpt>
      <trkpt lat="43.43294" lon="3.07602">
        <ele>106</ele>
        <time>2024-02-29T09:27:37+01:00</time>
      </trkpt>
      <trkpt lat="43.43268" lon="3.07574">
        <ele>108</ele>
        <time>2024-02-29T09:28:13+01:00</time>
      </trkpt>
      <trkpt lat="43.43257" lon="3.07547">
        <ele>108</ele>
        <time>2024-02-29T09:28:41+01:00</time>
      </trkpt>
      <trkpt lat="43.43235" lon="3.07526">
        <ele>108</ele>
        <time>2024-02-29T09:29:15+01:00</time>
      </trkpt>
      <trkpt lat="43.43238" lon="3.07492">
        <ele>106</ele>
        <time>2024-02-29T09:29:38+01:00</time>
      </trkpt>
      <trkpt lat="43.43214" lon="3.07484">
        <ele>107</ele>
        <time>2024-02-29T09:29:58+01:00</time>
      </trkpt>
      <trkpt lat="43.43187" lon="3.0749">
        <ele>110</ele>
        <time>2024-02-29T09:30:12+01:00</time>
      </trkpt>
      <trkpt lat="43.43165" lon="3.07478">
        <ele>112</ele>
        <time>2024-02-29T09:30:35+01:00</time>
      </trkpt>
      <trkpt lat="43.4315" lon="3.0745">
        <ele>112</ele>
        <time>2024-02-29T09:31:14+01:00</time>
      </trkpt>
      <trkpt lat="43.43154" lon="3.07416">
        <ele>110</ele>
        <time>2024-02-29T09:31:45+01:00</time>
      </trkpt>
      <trkpt lat="43.43166" lon="3.07387">
        <ele>109</ele>
        <time>2024-02-29T09:32:11+01:00</time>
      </trkpt>
      <trkpt lat="43.43175" lon="3.07357">
        <ele>109</ele>
        <time>2024-02-29T09:32:46+01:00</time>
      </trkpt>
      <trkpt lat="43.43148" lon="3.0735">
        <ele>113</ele>
        <time>2024-02-29T09:33:23+01:00</time>
      </trkpt>
      <trkpt lat="43.43127" lon="3.07363">
        <ele>114</ele>
        <time>2024-02-29T09:34:10+01:00</time>
      </trkpt>
      <trkpt lat="43.43105" lon="3.07395">
        <ele>113</ele>
        <time>2024-02-29T09:34:35+01:00</time>
      </trkpt>
      <trkpt lat="43.43093" lon="3.07366">
        <ele>116</ele>
        <time>2024-02-29T09:34:48+01:00</time>
      </trkpt>
      <trkpt lat="43.4307" lon="3.07344">
        <ele>119</ele>
        <time>2024-02-29T09:35:30+01:00</time>
      </trkpt>
      <trkpt lat="43.43047" lon="3.07341">
        <ele>119</ele>
        <time>2024-02-29T09:42:21+01:00</time>
      </trkpt>
      <trkpt lat="43.43056" lon="3.0731">
        <ele>125</ele>
        <time>2024-02-29T09:42:46+01:00</time>
      </trkpt>
      <trkpt lat="43.43038" lon="3.07286">
        <ele>131</ele>
        <time>2024-02-29T09:43:18+01:00</time>
      </trkpt>
      <trkpt lat="43.4301" lon="3.07272">
        <ele>132</ele>
        <time>2024-02-29T09:43:43+01:00</time>
      </trkpt>
      <trkpt lat="43.42991" lon="3.07254">
        <ele>133</ele>
        <time>2024-02-29T09:44:26+01:00</time>
      </trkpt>
      <trkpt lat="43.42973" lon="3.07231">
        <ele>135</ele>
        <time>2024-02-29T09:45:06+01:00</time>
      </trkpt>
      <trkpt lat="43.4297" lon="3.07197">
        <ele>141</ele>
        <time>2024-02-29T09:45:34+01:00</time>
      </trkpt>
      <trkpt lat="43.42952" lon="3.07164">
        <ele>144</ele>
        <time>2024-02-29T09:46:01+01:00</time>
      </trkpt>
      <trkpt lat="43.42932" lon="3.07131">
        <ele>151</ele>
        <time>2024-02-29T09:46:27+01:00</time>
      </trkpt>
      <trkpt lat="43.42932" lon="3.07098">
        <ele>154</ele>
        <time>2024-02-29T09:47:16+01:00</time>
      </trkpt>
      <trkpt lat="43.42923" lon="3.07064">
        <ele>156</ele>
        <time>2024-02-29T09:47:40+01:00</time>
      </trkpt>
      <trkpt lat="43.42897" lon="3.07061">
        <ele>157</ele>
        <time>2024-02-29T09:48:15+01:00</time>
      </trkpt>
      <trkpt lat="43.42876" lon="3.07043">
        <ele>157</ele>
        <time>2024-02-29T09:48:49+01:00</time>
      </trkpt>
      <trkpt lat="43.4287" lon="3.07006">
        <ele>158</ele>
        <time>2024-02-29T09:49:19+01:00</time>
      </trkpt>
      <trkpt lat="43.42865" lon="3.06976">
        <ele>159</ele>
        <time>2024-02-29T09:49:54+01:00</time>
      </trkpt>
      <trkpt lat="43.42849" lon="3.06951">
        <ele>159</ele>
        <time>2024-02-29T09:50:23+01:00</time>
      </trkpt>
      <trkpt lat="43.42825" lon="3.06918">
        <ele>161</ele>
        <time>2024-02-29T09:53:45+01:00</time>
      </trkpt>
      <trkpt lat="43.42804" lon="3.06904">
        <ele>165</ele>
        <time>2024-02-29T09:54:57+01:00</time>
      </trkpt>
      <trkpt lat="43.42792" lon="3.06878">
        <ele>169</ele>
        <time>2024-02-29T09:55:35+01:00</time>
      </trkpt>
      <trkpt lat="43.42758" lon="3.06859">
        <ele>168</ele>
        <time>2024-02-29T09:55:52+01:00</time>
      </trkpt>
      <trkpt lat="43.42735" lon="3.0685">
        <ele>168</ele>
        <time>2024-02-29T09:56:14+01:00</time>
      </trkpt>
      <trkpt lat="43.42713" lon="3.06862">
        <ele>168</ele>
        <time>2024-02-29T09:56:28+01:00</time>
      </trkpt>
      <trkpt lat="43.42691" lon="3.0689">
        <ele>168</ele>
        <time>2024-02-29T09:56:58+01:00</time>
      </trkpt>
      <trkpt lat="43.42664" lon="3.06896">
        <ele>169</ele>
        <time>2024-02-29T09:57:33+01:00</time>
      </trkpt>
      <trkpt lat="43.42639" lon="3.06899">
        <ele>169</ele>
        <time>2024-02-29T09:58:03+01:00</time>
      </trkpt>
      <trkpt lat="43.42621" lon="3.06877">
        <ele>169</ele>
        <time>2024-02-29T09:58:28+01:00</time>
      </trkpt>
      <trkpt lat="43.42602" lon="3.06851">
        <ele>169</ele>
        <time>2024-02-29T09:58:59+01:00</time>
      </trkpt>
      <trkpt lat="43.42589" lon="3.06826">
        <ele>169</ele>
        <time>2024-02-29T09:59:17+01:00</time>
      </trkpt>
      <trkpt lat="43.42587" lon="3.06782">
        <ele>170</ele>
        <time>2024-02-29T09:59:40+01:00</time>
      </trkpt>
      <trkpt lat="43.42556" lon="3.06784">
        <ele>172</ele>
        <time>2024-02-29T10:00:11+01:00</time>
      </trkpt>
      <trkpt lat="43.4254" lon="3.06762">
        <ele>174</ele>
        <time>2024-02-29T10:00:59+01:00</time>
      </trkpt>
      <trkpt lat="43.42517" lon="3.06752">
        <ele>177</ele>
        <time>2024-02-29T10:01:27+01:00</time>
      </trkpt>
      <trkpt lat="43.42497" lon="3.06728">
        <ele>178</ele>
        <time>2024-02-29T10:01:51+01:00</time>
      </trkpt>
      <trkpt lat="43.42472" lon="3.06739">
        <ele>182</ele>
        <time>2024-02-29T10:02:28+01:00</time>
      </trkpt>
      <trkpt lat="43.42461" lon="3.06771">
        <ele>184</ele>
        <time>2024-02-29T10:02:52+01:00</time>
      </trkpt>
      <trkpt lat="43.42446" lon="3.06806">
        <ele>185</ele>
        <time>2024-02-29T10:03:22+01:00</time>
      </trkpt>
      <trkpt lat="43.42423" lon="3.0682">
        <ele>185</ele>
        <time>2024-02-29T10:03:59+01:00</time>
      </trkpt>
      <trkpt lat="43.42435" lon="3.06848">
        <ele>185</ele>
        <time>2024-02-29T10:09:13+01:00</time>
      </trkpt>
      <trkpt lat="43.42411" lon="3.06857">
        <ele>185</ele>
        <time>2024-02-29T10:09:32+01:00</time>
      </trkpt>
      <trkpt lat="43.42388" lon="3.06876">
        <ele>185</ele>
        <time>2024-02-29T10:10:02+01:00</time>
      </trkpt>
      <trkpt lat="43.42364" lon="3.06876">
        <ele>185</ele>
        <time>2024-02-29T10:10:27+01:00</time>
      </trkpt>
      <trkpt lat="43.42344" lon="3.06891">
        <ele>183</ele>
        <time>2024-02-29T10:10:48+01:00</time>
      </trkpt>
      <trkpt lat="43.42321" lon="3.06899">
        <ele>183</ele>
        <time>2024-02-29T10:11:12+01:00</time>
      </trkpt>
      <trkpt lat="43.42312" lon="3.06928">
        <ele>184</ele>
        <time>2024-02-29T10:11:37+01:00</time>
      </trkpt>
      <trkpt lat="43.42289" lon="3.0692">
        <ele>185</ele>
        <time>2024-02-29T10:12:56+01:00</time>
      </trkpt>
      <trkpt lat="43.42266" lon="3.06909">
        <ele>185</ele>
        <time>2024-02-29T10:13:30+01:00</time>
      </trkpt>
      <trkpt lat="43.42248" lon="3.06888">
        <ele>185</ele>
        <time>2024-02-29T10:13:56+01:00</time>
      </trkpt>
      <trkpt lat="43.42241" lon="3.06858">
        <ele>186</ele>
        <time>2024-02-29T10:14:25+01:00</time>
      </trkpt>
      <trkpt lat="43.42246" lon="3.06825">
        <ele>187</ele>
        <time>2024-02-29T10:14:49+01:00</time>
      </trkpt>
      <trkpt lat="43.42234" lon="3.06798">
        <ele>186</ele>
        <time>2024-02-29T10:15:19+01:00</time>
      </trkpt>
      <trkpt lat="43.42234" lon="3.06765">
        <ele>185</ele>
        <time>2024-02-29T10:15:56+01:00</time>
      </trkpt>
      <trkpt lat="43.42218" lon="3.06737">
        <ele>184</ele>
        <time>2024-02-29T10:16:13+01:00</time>
      </trkpt>
      <trkpt lat="43.42201" lon="3.06709">
        <ele>183</ele>
        <time>2024-02-29T10:16:30+01:00</time>
      </trkpt>
      <trkpt lat="43.42188" lon="3.06676">
        <ele>182</ele>
        <time>2024-02-29T10:17:01+01:00</time>
      </trkpt>
      <trkpt lat="43.42174" lon="3.06649">
        <ele>182</ele>
        <time>2024-02-29T10:17:31+01:00</time>
      </trkpt>
      <trkpt lat="43.42166" lon="3.06618">
        <ele>182</ele>
        <time>2024-02-29T10:18:01+01:00</time>
      </trkpt>
      <trkpt lat="43.42161" lon="3.06586">
        <ele>181</ele>
        <time>2024-02-29T10:18:25+01:00</time>
      </trkpt>
      <trkpt lat="43.42159" lon="3.06548">
        <ele>180</ele>
        <time>2024-02-29T10:18:54+01:00</time>
      </trkpt>
      <trkpt lat="43.4215" lon="3.06511">
        <ele>180</ele>
        <time>2024-02-29T10:19:31+01:00</time>
      </trkpt>
      <trkpt lat="43.42145" lon="3.06475">
        <ele>180</ele>
        <time>2024-02-29T10:19:55+01:00</time>
      </trkpt>
      <trkpt lat="43.42146" lon="3.06439">
        <ele>180</ele>
        <time>2024-02-29T10:20:24+01:00</time>
      </trkpt>
      <trkpt lat="43.42151" lon="3.06405">
        <ele>180</ele>
        <time>2024-02-29T10:20:49+01:00</time>
      </trkpt>
      <trkpt lat="43.42154" lon="3.06371">
        <ele>180</ele>
        <time>2024-02-29T10:21:13+01:00</time>
      </trkpt>
      <trkpt lat="43.42149" lon="3.0634">
        <ele>180</ele>
        <time>2024-02-29T10:21:37+01:00</time>
      </trkpt>
      <trkpt lat="43.42135" lon="3.06314">
        <ele>180</ele>
        <time>2024-02-29T10:22:06+01:00</time>
      </trkpt>
      <trkpt lat="43.42108" lon="3.06296">
        <ele>180</ele>
        <time>2024-02-29T10:22:38+01:00</time>
      </trkpt>
      <trkpt lat="43.42095" lon="3.06268">
        <ele>180</ele>
        <time>2024-02-29T10:23:09+01:00</time>
      </trkpt>
      <trkpt lat="43.4208" lon="3.06244">
        <ele>180</ele>
        <time>2024-02-29T10:23:34+01:00</time>
      </trkpt>
      <trkpt lat="43.42069" lon="3.06212">
        <ele>182</ele>
        <time>2024-02-29T10:23:51+01:00</time>
      </trkpt>
      <trkpt lat="43.4205" lon="3.06188">
        <ele>182</ele>
        <time>2024-02-29T10:24:28+01:00</time>
      </trkpt>
      <trkpt lat="43.4204" lon="3.06155">
        <ele>183</ele>
        <time>2024-02-29T10:24:53+01:00</time>
      </trkpt>
      <trkpt lat="43.42035" lon="3.06121">
        <ele>184</ele>
        <time>2024-02-29T10:25:22+01:00</time>
      </trkpt>
      <trkpt lat="43.42021" lon="3.06088">
        <ele>185</ele>
        <time>2024-02-29T10:26:17+01:00</time>
      </trkpt>
      <trkpt lat="43.42009" lon="3.0606">
        <ele>185</ele>
        <time>2024-02-29T10:26:36+01:00</time>
      </trkpt>
      <trkpt lat="43.41993" lon="3.06037">
        <ele>187</ele>
        <time>2024-02-29T10:27:36+01:00</time>
      </trkpt>
      <trkpt lat="43.41973" lon="3.06015">
        <ele>189</ele>
        <time>2024-02-29T10:29:13+01:00</time>
      </trkpt>
      <trkpt lat="43.41957" lon="3.05989">
        <ele>191</ele>
        <time>2024-02-29T10:29:23+01:00</time>
      </trkpt>
      <trkpt lat="43.41939" lon="3.05964">
        <ele>192</ele>
        <time>2024-02-29T10:30:00+01:00</time>
      </trkpt>
      <trkpt lat="43.41923" lon="3.05936">
        <ele>192</ele>
        <time>2024-02-29T10:30:35+01:00</time>
      </trkpt>
      <trkpt lat="43.41903" lon="3.05916">
        <ele>190</ele>
        <time>2024-02-29T10:33:01+01:00</time>
      </trkpt>
      <trkpt lat="43.41888" lon="3.05886">
        <ele>189</ele>
        <time>2024-02-29T10:33:43+01:00</time>
      </trkpt>
      <trkpt lat="43.4187" lon="3.05864">
        <ele>187</ele>
        <time>2024-02-29T10:34:14+01:00</time>
      </trkpt>
      <trkpt lat="43.41852" lon="3.05845">
        <ele>186</ele>
        <time>2024-02-29T10:34:37+01:00</time>
      </trkpt>
      <trkpt lat="43.41836" lon="3.05823">
        <ele>184</ele>
        <time>2024-02-29T10:35:01+01:00</time>
      </trkpt>
      <trkpt lat="43.41832" lon="3.0579">
        <ele>181</ele>
        <time>2024-02-29T10:35:29+01:00</time>
      </trkpt>
      <trkpt lat="43.41833" lon="3.05757">
        <ele>179</ele>
        <time>2024-02-29T10:35:58+01:00</time>
      </trkpt>
      <trkpt lat="43.41822" lon="3.05728">
        <ele>177</ele>
        <time>2024-02-29T10:36:23+01:00</time>
      </trkpt>
      <trkpt lat="43.41809" lon="3.05697">
        <ele>174</ele>
        <time>2024-02-29T10:36:43+01:00</time>
      </trkpt>
      <trkpt lat="43.41787" lon="3.0568">
        <ele>172</ele>
        <time>2024-02-29T10:37:12+01:00</time>
      </trkpt>
      <trkpt lat="43.41766" lon="3.05665">
        <ele>171</ele>
        <time>2024-02-29T10:37:41+01:00</time>
      </trkpt>
      <trkpt lat="43.41746" lon="3.05647">
        <ele>170</ele>
        <time>2024-02-29T10:38:19+01:00</time>
      </trkpt>
      <trkpt lat="43.41727" lon="3.05629">
        <ele>170</ele>
        <time>2024-02-29T10:38:43+01:00</time>
      </trkpt>
      <trkpt lat="43.41726" lon="3.05589">
        <ele>170</ele>
        <time>2024-02-29T10:39:55+01:00</time>
      </trkpt>
      <trkpt lat="43.41745" lon="3.05572">
        <ele>170</ele>
        <time>2024-02-29T10:40:32+01:00</time>
      </trkpt>
      <trkpt lat="43.41763" lon="3.05546">
        <ele>170</ele>
        <time>2024-02-29T10:41:47+01:00</time>
      </trkpt>
      <trkpt lat="43.41747" lon="3.05514">
        <ele>170</ele>
        <time>2024-02-29T10:42:52+01:00</time>
      </trkpt>
      <trkpt lat="43.41759" lon="3.05481">
        <ele>170</ele>
        <time>2024-02-29T10:43:24+01:00</time>
      </trkpt>
      <trkpt lat="43.4178" lon="3.05465">
        <ele>170</ele>
        <time>2024-02-29T10:44:02+01:00</time>
      </trkpt>
      <trkpt lat="43.4181" lon="3.05492">
        <ele>172</ele>
        <time>2024-02-29T10:45:25+01:00</time>
      </trkpt>
      <trkpt lat="43.41803" lon="3.05538">
        <ele>170</ele>
        <time>2024-02-29T10:47:35+01:00</time>
      </trkpt>
      <trkpt lat="43.41803" lon="3.05505">
        <ele>171</ele>
        <time>2024-02-29T10:48:59+01:00</time>
      </trkpt>
      <trkpt lat="43.41788" lon="3.05476">
        <ele>170</ele>
        <time>2024-02-29T10:50:42+01:00</time>
      </trkpt>
      <trkpt lat="43.41781" lon="3.05468">
        <ele>170</ele>
        <time>2024-02-29T10:55:51+01:00</time>
      </trkpt>
      <trkpt lat="43.41767" lon="3.05435">
        <ele>170</ele>
        <time>2024-02-29T10:56:55+01:00</time>
      </trkpt>
      <trkpt lat="43.41752" lon="3.05397">
        <ele>173</ele>
        <time>2024-02-29T10:57:25+01:00</time>
      </trkpt>
      <trkpt lat="43.41732" lon="3.05377">
        <ele>176</ele>
        <time>2024-02-29T10:57:43+01:00</time>
      </trkpt>
      <trkpt lat="43.41726" lon="3.05347">
        <ele>178</ele>
        <time>2024-02-29T10:58:21+01:00</time>
      </trkpt>
      <trkpt lat="43.41723" lon="3.05312">
        <ele>181</ele>
        <time>2024-02-29T10:59:00+01:00</time>
      </trkpt>
      <trkpt lat="43.41739" lon="3.05285">
        <ele>181</ele>
        <time>2024-02-29T10:59:43+01:00</time>
      </trkpt>
      <trkpt lat="43.41762" lon="3.05282">
        <ele>180</ele>
        <time>2024-02-29T11:02:06+01:00</time>
      </trkpt>
      <trkpt lat="43.41788" lon="3.05264">
        <ele>179</ele>
        <time>2024-02-29T11:02:33+01:00</time>
      </trkpt>
      <trkpt lat="43.41809" lon="3.05241">
        <ele>179</ele>
        <time>2024-02-29T11:03:02+01:00</time>
      </trkpt>
      <trkpt lat="43.41838" lon="3.05252">
        <ele>179</ele>
        <time>2024-02-29T11:04:02+01:00</time>
      </trkpt>
      <trkpt lat="43.41859" lon="3.05266">
        <ele>179</ele>
        <time>2024-02-29T11:04:51+01:00</time>
      </trkpt>
      <trkpt lat="43.4189" lon="3.05263">
        <ele>180</ele>
        <time>2024-02-29T11:05:15+01:00</time>
      </trkpt>
      <trkpt lat="43.41914" lon="3.05268">
        <ele>180</ele>
        <time>2024-02-29T11:05:39+01:00</time>
      </trkpt>
      <trkpt lat="43.41937" lon="3.05263">
        <ele>180</ele>
        <time>2024-02-29T11:06:03+01:00</time>
      </trkpt>
      <trkpt lat="43.41958" lon="3.05295">
        <ele>180</ele>
        <time>2024-02-29T11:06:51+01:00</time>
      </trkpt>
      <trkpt lat="43.41984" lon="3.05308">
        <ele>182</ele>
        <time>2024-02-29T11:07:52+01:00</time>
      </trkpt>
      <trkpt lat="43.42006" lon="3.05297">
        <ele>186</ele>
        <time>2024-02-29T11:08:35+01:00</time>
      </trkpt>
      <trkpt lat="43.42014" lon="3.05331">
        <ele>184</ele>
        <time>2024-02-29T11:10:29+01:00</time>
      </trkpt>
      <trkpt lat="43.42036" lon="3.05342">
        <ele>186</ele>
        <time>2024-02-29T11:10:54+01:00</time>
      </trkpt>
      <trkpt lat="43.42061" lon="3.05343">
        <ele>187</ele>
        <time>2024-02-29T11:11:17+01:00</time>
      </trkpt>
      <trkpt lat="43.42079" lon="3.05364">
        <ele>189</ele>
        <time>2024-02-29T11:12:06+01:00</time>
      </trkpt>
      <trkpt lat="43.42106" lon="3.05381">
        <ele>191</ele>
        <time>2024-02-29T11:12:47+01:00</time>
      </trkpt>
      <trkpt lat="43.42124" lon="3.054">
        <ele>193</ele>
        <time>2024-02-29T11:13:11+01:00</time>
      </trkpt>
      <trkpt lat="43.42148" lon="3.05406">
        <ele>195</ele>
        <time>2024-02-29T11:13:36+01:00</time>
      </trkpt>
      <trkpt lat="43.42172" lon="3.05414">
        <ele>195</ele>
        <time>2024-02-29T11:14:00+01:00</time>
      </trkpt>
      <trkpt lat="43.42193" lon="3.05399">
        <ele>195</ele>
        <time>2024-02-29T11:14:42+01:00</time>
      </trkpt>
      <trkpt lat="43.42216" lon="3.0539">
        <ele>195</ele>
        <time>2024-02-29T11:15:12+01:00</time>
      </trkpt>
      <trkpt lat="43.42229" lon="3.05363">
        <ele>195</ele>
        <time>2024-02-29T11:15:36+01:00</time>
      </trkpt>
      <trkpt lat="43.42241" lon="3.05332">
        <ele>195</ele>
        <time>2024-02-29T11:16:00+01:00</time>
      </trkpt>
      <trkpt lat="43.42267" lon="3.05323">
        <ele>195</ele>
        <time>2024-02-29T11:16:31+01:00</time>
      </trkpt>
      <trkpt lat="43.42293" lon="3.05321">
        <ele>194</ele>
        <time>2024-02-29T11:17:12+01:00</time>
      </trkpt>
      <trkpt lat="43.42314" lon="3.05308">
        <ele>193</ele>
        <time>2024-02-29T11:17:30+01:00</time>
      </trkpt>
      <trkpt lat="43.42331" lon="3.05285">
        <ele>191</ele>
        <time>2024-02-29T11:19:25+01:00</time>
      </trkpt>
      <trkpt lat="43.42341" lon="3.05252">
        <ele>189</ele>
        <time>2024-02-29T11:19:55+01:00</time>
      </trkpt>
      <trkpt lat="43.42364" lon="3.05271">
        <ele>189</ele>
        <time>2024-02-29T11:20:26+01:00</time>
      </trkpt>
      <trkpt lat="43.42384" lon="3.05252">
        <ele>188</ele>
        <time>2024-02-29T11:21:07+01:00</time>
      </trkpt>
      <trkpt lat="43.42409" lon="3.0524">
        <ele>187</ele>
        <time>2024-02-29T11:21:38+01:00</time>
      </trkpt>
      <trkpt lat="43.42434" lon="3.0523">
        <ele>185</ele>
        <time>2024-02-29T11:22:33+01:00</time>
      </trkpt>
      <trkpt lat="43.42441" lon="3.05195">
        <ele>182</ele>
        <time>2024-02-29T11:23:17+01:00</time>
      </trkpt>
      <trkpt lat="43.42448" lon="3.05162">
        <ele>180</ele>
        <time>2024-02-29T11:24:54+01:00</time>
      </trkpt>
      <trkpt lat="43.42443" lon="3.05132">
        <ele>182</ele>
        <time>2024-02-29T11:25:10+01:00</time>
      </trkpt>
      <trkpt lat="43.42467" lon="3.05131">
        <ele>174</ele>
        <time>2024-02-29T11:26:03+01:00</time>
      </trkpt>
      <trkpt lat="43.42493" lon="3.05141">
        <ele>169</ele>
        <time>2024-02-29T11:28:25+01:00</time>
      </trkpt>
      <trkpt lat="43.42515" lon="3.05155">
        <ele>169</ele>
        <time>2024-02-29T11:29:25+01:00</time>
      </trkpt>
      <trkpt lat="43.42541" lon="3.05161">
        <ele>169</ele>
        <time>2024-02-29T11:30:07+01:00</time>
      </trkpt>
      <trkpt lat="43.42565" lon="3.05172">
        <ele>170</ele>
        <time>2024-02-29T11:30:25+01:00</time>
      </trkpt>
      <trkpt lat="43.4259" lon="3.05163">
        <ele>165</ele>
        <time>2024-02-29T11:31:08+01:00</time>
      </trkpt>
      <trkpt lat="43.42611" lon="3.05178">
        <ele>162</ele>
        <time>2024-02-29T11:31:50+01:00</time>
      </trkpt>
      <trkpt lat="43.42635" lon="3.05179">
        <ele>159</ele>
        <time>2024-02-29T11:32:44+01:00</time>
      </trkpt>
      <trkpt lat="43.42659" lon="3.05169">
        <ele>154</ele>
        <time>2024-02-29T11:33:13+01:00</time>
      </trkpt>
      <trkpt lat="43.42648" lon="3.05142">
        <ele>153</ele>
        <time>2024-02-29T11:37:06+01:00</time>
      </trkpt>
      <trkpt lat="43.42627" lon="3.05126">
        <ele>156</ele>
        <time>2024-02-29T11:37:33+01:00</time>
      </trkpt>
      <trkpt lat="43.42607" lon="3.05096">
        <ele>158</ele>
        <time>2024-02-29T11:37:59+01:00</time>
      </trkpt>
      <trkpt lat="43.42583" lon="3.05083">
        <ele>160</ele>
        <time>2024-02-29T11:38:47+01:00</time>
      </trkpt>
      <trkpt lat="43.42553" lon="3.05074">
        <ele>160</ele>
        <time>2024-02-29T11:39:12+01:00</time>
      </trkpt>
      <trkpt lat="43.42522" lon="3.05067">
        <ele>160</ele>
        <time>2024-02-29T11:39:38+01:00</time>
      </trkpt>
      <trkpt lat="43.42501" lon="3.05045">
        <ele>160</ele>
        <time>2024-02-29T11:40:08+01:00</time>
      </trkpt>
      <trkpt lat="43.42486" lon="3.05018">
        <ele>160</ele>
        <time>2024-02-29T11:40:37+01:00</time>
      </trkpt>
      <trkpt lat="43.4247" lon="3.04997">
        <ele>160</ele>
        <time>2024-02-29T11:40:56+01:00</time>
      </trkpt>
      <trkpt lat="43.42449" lon="3.04983">
        <ele>163</ele>
        <time>2024-02-29T11:41:27+01:00</time>
      </trkpt>
      <trkpt lat="43.42427" lon="3.04991">
        <ele>165</ele>
        <time>2024-02-29T11:42:21+01:00</time>
      </trkpt>
      <trkpt lat="43.42406" lon="3.05019">
        <ele>170</ele>
        <time>2024-02-29T11:42:59+01:00</time>
      </trkpt>
      <trkpt lat="43.42429" lon="3.04987">
        <ele>165</ele>
        <time>2024-02-29T11:44:24+01:00</time>
      </trkpt>
      <trkpt lat="43.42449" lon="3.0497">
        <ele>163</ele>
        <time>2024-02-29T11:46:05+01:00</time>
      </trkpt>
      <trkpt lat="43.4247" lon="3.0499">
        <ele>161</ele>
        <time>2024-02-29T11:46:35+01:00</time>
      </trkpt>
      <trkpt lat="43.42482" lon="3.05021">
        <ele>160</ele>
        <time>2024-02-29T11:46:59+01:00</time>
      </trkpt>
      <trkpt lat="43.425" lon="3.05048">
        <ele>160</ele>
        <time>2024-02-29T11:47:23+01:00</time>
      </trkpt>
      <trkpt lat="43.42519" lon="3.05065">
        <ele>160</ele>
        <time>2024-02-29T11:47:41+01:00</time>
      </trkpt>
      <trkpt lat="43.42548" lon="3.0507">
        <ele>160</ele>
        <time>2024-02-29T11:48:05+01:00</time>
      </trkpt>
      <trkpt lat="43.42574" lon="3.05074">
        <ele>160</ele>
        <time>2024-02-29T11:48:29+01:00</time>
      </trkpt>
      <trkpt lat="43.42597" lon="3.05098">
        <ele>159</ele>
        <time>2024-02-29T11:48:54+01:00</time>
      </trkpt>
      <trkpt lat="43.42621" lon="3.05116">
        <ele>157</ele>
        <time>2024-02-29T11:49:23+01:00</time>
      </trkpt>
      <trkpt lat="43.42642" lon="3.05135">
        <ele>154</ele>
        <time>2024-02-29T11:49:47+01:00</time>
      </trkpt>
      <trkpt lat="43.42661" lon="3.05162">
        <ele>153</ele>
        <time>2024-02-29T11:50:11+01:00</time>
      </trkpt>
      <trkpt lat="43.42693" lon="3.05153">
        <ele>151</ele>
        <time>2024-02-29T11:54:00+01:00</time>
      </trkpt>
      <trkpt lat="43.4271" lon="3.05133">
        <ele>153</ele>
        <time>2024-02-29T11:54:50+01:00</time>
      </trkpt>
      <trkpt lat="43.42725" lon="3.05104">
        <ele>138</ele>
        <time>2024-02-29T11:56:14+01:00</time>
      </trkpt>
      <trkpt lat="43.42753" lon="3.05093">
        <ele>135</ele>
        <time>2024-02-29T11:57:09+01:00</time>
      </trkpt>
      <trkpt lat="43.42777" lon="3.05091">
        <ele>134</ele>
        <time>2024-02-29T11:58:25+01:00</time>
      </trkpt>
      <trkpt lat="43.42792" lon="3.0506">
        <ele>123</ele>
        <time>2024-02-29T11:59:13+01:00</time>
      </trkpt>
      <trkpt lat="43.428" lon="3.0503">
        <ele>116</ele>
        <time>2024-02-29T11:59:43+01:00</time>
      </trkpt>
      <trkpt lat="43.42818" lon="3.05048">
        <ele>120</ele>
        <time>2024-02-29T12:00:19+01:00</time>
      </trkpt>
      <trkpt lat="43.4285" lon="3.05032">
        <ele>117</ele>
        <time>2024-02-29T12:00:43+01:00</time>
      </trkpt>
      <trkpt lat="43.42874" lon="3.05018">
        <ele>115</ele>
        <time>2024-02-29T12:01:32+01:00</time>
      </trkpt>
      <trkpt lat="43.42858" lon="3.04991">
        <ele>111</ele>
        <time>2024-02-29T12:02:09+01:00</time>
      </trkpt>
      <trkpt lat="43.4285" lon="3.04961">
        <ele>106</ele>
        <time>2024-02-29T12:03:29+01:00</time>
      </trkpt>
      <trkpt lat="43.42868" lon="3.04942">
        <ele>104</ele>
        <time>2024-02-29T12:03:55+01:00</time>
      </trkpt>
      <trkpt lat="43.42897" lon="3.04943">
        <ele>103</ele>
        <time>2024-02-29T12:04:19+01:00</time>
      </trkpt>
      <trkpt lat="43.42912" lon="3.04914">
        <ele>98</ele>
        <time>2024-02-29T12:05:01+01:00</time>
      </trkpt>
      <trkpt lat="43.42936" lon="3.04906">
        <ele>93</ele>
        <time>2024-02-29T12:05:49+01:00</time>
      </trkpt>
      <trkpt lat="43.42962" lon="3.04896">
        <ele>90</ele>
        <time>2024-02-29T12:06:13+01:00</time>
      </trkpt>
      <trkpt lat="43.42985" lon="3.04889">
        <ele>90</ele>
        <time>2024-02-29T12:06:29+01:00</time>
      </trkpt>
      <trkpt lat="43.42989" lon="3.04928">
        <ele>90</ele>
        <time>2024-02-29T12:06:57+01:00</time>
      </trkpt>
      <trkpt lat="43.43005" lon="3.04951">
        <ele>90</ele>
        <time>2024-02-29T12:07:56+01:00</time>
      </trkpt>
      <trkpt lat="43.43029" lon="3.04951">
        <ele>91</ele>
        <time>2024-02-29T12:08:11+01:00</time>
      </trkpt>
      <trkpt lat="43.43038" lon="3.04922">
        <ele>92</ele>
        <time>2024-02-29T12:09:10+01:00</time>
      </trkpt>
      <trkpt lat="43.4303" lon="3.04952">
        <ele>91</ele>
        <time>2024-02-29T12:09:59+01:00</time>
      </trkpt>
      <trkpt lat="43.43032" lon="3.04913">
        <ele>92</ele>
        <time>2024-02-29T12:10:51+01:00</time>
      </trkpt>
      <trkpt lat="43.43033" lon="3.04932">
        <ele>92</ele>
        <time>2024-02-29T12:57:37+01:00</time>
      </trkpt>
      <trkpt lat="43.43007" lon="3.04942">
        <ele>90</ele>
        <time>2024-02-29T13:01:35+01:00</time>
      </trkpt>
      <trkpt lat="43.42985" lon="3.0491">
        <ele>90</ele>
        <time>2024-02-29T13:02:50+01:00</time>
      </trkpt>
      <trkpt lat="43.42961" lon="3.04892">
        <ele>90</ele>
        <time>2024-02-29T13:03:10+01:00</time>
      </trkpt>
      <trkpt lat="43.42935" lon="3.04888">
        <ele>90</ele>
        <time>2024-02-29T13:03:30+01:00</time>
      </trkpt>
      <trkpt lat="43.42912" lon="3.04872">
        <ele>91</ele>
        <time>2024-02-29T13:03:54+01:00</time>
      </trkpt>
      <trkpt lat="43.42883" lon="3.0487">
        <ele>93</ele>
        <time>2024-02-29T13:04:48+01:00</time>
      </trkpt>
      <trkpt lat="43.42862" lon="3.04842">
        <ele>92</ele>
        <time>2024-02-29T13:05:24+01:00</time>
      </trkpt>
      <trkpt lat="43.42843" lon="3.04816">
        <ele>96</ele>
        <time>2024-02-29T13:06:00+01:00</time>
      </trkpt>
      <trkpt lat="43.42867" lon="3.04825">
        <ele>91</ele>
        <time>2024-02-29T13:07:20+01:00</time>
      </trkpt>
      <trkpt lat="43.42891" lon="3.04817">
        <ele>94</ele>
        <time>2024-02-29T13:07:34+01:00</time>
      </trkpt>
      <trkpt lat="43.42914" lon="3.04816">
        <ele>97</ele>
        <time>2024-02-29T13:08:09+01:00</time>
      </trkpt>
      <trkpt lat="43.42908" lon="3.0478">
        <ele>103</ele>
        <time>2024-02-29T13:09:17+01:00</time>
      </trkpt>
      <trkpt lat="43.42889" lon="3.0476">
        <ele>102</ele>
        <time>2024-02-29T13:09:41+01:00</time>
      </trkpt>
      <trkpt lat="43.42896" lon="3.04727">
        <ele>108</ele>
        <time>2024-02-29T13:11:14+01:00</time>
      </trkpt>
      <trkpt lat="43.42891" lon="3.04696">
        <ele>110</ele>
        <time>2024-02-29T13:11:40+01:00</time>
      </trkpt>
      <trkpt lat="43.42885" lon="3.04665">
        <ele>111</ele>
        <time>2024-02-29T13:12:04+01:00</time>
      </trkpt>
      <trkpt lat="43.42868" lon="3.04627">
        <ele>112</ele>
        <time>2024-02-29T13:12:29+01:00</time>
      </trkpt>
      <trkpt lat="43.42855" lon="3.04595">
        <ele>112</ele>
        <time>2024-02-29T13:12:53+01:00</time>
      </trkpt>
      <trkpt lat="43.42846" lon="3.0456">
        <ele>113</ele>
        <time>2024-02-29T13:13:16+01:00</time>
      </trkpt>
      <trkpt lat="43.42829" lon="3.04538">
        <ele>112</ele>
        <time>2024-02-29T13:13:44+01:00</time>
      </trkpt>
      <trkpt lat="43.42822" lon="3.04508">
        <ele>114</ele>
        <time>2024-02-29T13:14:08+01:00</time>
      </trkpt>
      <trkpt lat="43.42805" lon="3.04486">
        <ele>115</ele>
        <time>2024-02-29T13:14:32+01:00</time>
      </trkpt>
      <trkpt lat="43.42779" lon="3.04482">
        <ele>113</ele>
        <time>2024-02-29T13:14:57+01:00</time>
      </trkpt>
      <trkpt lat="43.42757" lon="3.04476">
        <ele>112</ele>
        <time>2024-02-29T13:15:21+01:00</time>
      </trkpt>
      <trkpt lat="43.42739" lon="3.04454">
        <ele>112</ele>
        <time>2024-02-29T13:15:50+01:00</time>
      </trkpt>
      <trkpt lat="43.42717" lon="3.04439">
        <ele>111</ele>
        <time>2024-02-29T13:16:09+01:00</time>
      </trkpt>
      <trkpt lat="43.42693" lon="3.04416">
        <ele>111</ele>
        <time>2024-02-29T13:16:33+01:00</time>
      </trkpt>
      <trkpt lat="43.42684" lon="3.04382">
        <ele>113</ele>
        <time>2024-02-29T13:17:02+01:00</time>
      </trkpt>
      <trkpt lat="43.42669" lon="3.04353">
        <ele>113</ele>
        <time>2024-02-29T13:17:26+01:00</time>
      </trkpt>
      <trkpt lat="43.42646" lon="3.04328">
        <ele>112</ele>
        <time>2024-02-29T13:17:50+01:00</time>
      </trkpt>
      <trkpt lat="43.42637" lon="3.04295">
        <ele>113</ele>
        <time>2024-02-29T13:18:16+01:00</time>
      </trkpt>
      <trkpt lat="43.42627" lon="3.04264">
        <ele>113</ele>
        <time>2024-02-29T13:18:35+01:00</time>
      </trkpt>
      <trkpt lat="43.42616" lon="3.04227">
        <ele>113</ele>
        <time>2024-02-29T13:19:00+01:00</time>
      </trkpt>
      <trkpt lat="43.42602" lon="3.04186">
        <ele>114</ele>
        <time>2024-02-29T13:19:38+01:00</time>
      </trkpt>
      <trkpt lat="43.42621" lon="3.04158">
        <ele>117</ele>
        <time>2024-02-29T13:20:05+01:00</time>
      </trkpt>
      <trkpt lat="43.42641" lon="3.04144">
        <ele>120</ele>
        <time>2024-02-29T13:20:29+01:00</time>
      </trkpt>
      <trkpt lat="43.42627" lon="3.04113">
        <ele>118</ele>
        <time>2024-02-29T13:20:52+01:00</time>
      </trkpt>
      <trkpt lat="43.42623" lon="3.04078">
        <ele>117</ele>
        <time>2024-02-29T13:22:20+01:00</time>
      </trkpt>
      <trkpt lat="43.4261" lon="3.04044">
        <ele>118</ele>
        <time>2024-02-29T13:22:48+01:00</time>
      </trkpt>
      <trkpt lat="43.42597" lon="3.04012">
        <ele>118</ele>
        <time>2024-02-29T13:23:12+01:00</time>
      </trkpt>
      <trkpt lat="43.4259" lon="3.03976">
        <ele>120</ele>
        <time>2024-02-29T13:23:41+01:00</time>
      </trkpt>
      <trkpt lat="43.42595" lon="3.03943">
        <ele>122</ele>
        <time>2024-02-29T13:24:09+01:00</time>
      </trkpt>
      <trkpt lat="43.42609" lon="3.03908">
        <ele>124</ele>
        <time>2024-02-29T13:24:37+01:00</time>
      </trkpt>
      <trkpt lat="43.42613" lon="3.03858">
        <ele>126</ele>
        <time>2024-02-29T13:25:22+01:00</time>
      </trkpt>
      <trkpt lat="43.42621" lon="3.03827">
        <ele>128</ele>
        <time>2024-02-29T13:25:52+01:00</time>
      </trkpt>
      <trkpt lat="43.4262" lon="3.03793">
        <ele>129</ele>
        <time>2024-02-29T13:26:17+01:00</time>
      </trkpt>
      <trkpt lat="43.42633" lon="3.03755">
        <ele>131</ele>
        <time>2024-02-29T13:26:41+01:00</time>
      </trkpt>
      <trkpt lat="43.42647" lon="3.03728">
        <ele>132</ele>
        <time>2024-02-29T13:27:43+01:00</time>
      </trkpt>
      <trkpt lat="43.42668" lon="3.03709">
        <ele>132</ele>
        <time>2024-02-29T13:28:28+01:00</time>
      </trkpt>
      <trkpt lat="43.42687" lon="3.03685">
        <ele>134</ele>
        <time>2024-02-29T13:29:46+01:00</time>
      </trkpt>
      <trkpt lat="43.42698" lon="3.03656">
        <ele>135</ele>
        <time>2024-02-29T13:30:17+01:00</time>
      </trkpt>
      <trkpt lat="43.42704" lon="3.03621">
        <ele>138</ele>
        <time>2024-02-29T13:30:41+01:00</time>
      </trkpt>
      <trkpt lat="43.42701" lon="3.0358">
        <ele>140</ele>
        <time>2024-02-29T13:31:10+01:00</time>
      </trkpt>
      <trkpt lat="43.42711" lon="3.03544">
        <ele>141</ele>
        <time>2024-02-29T13:31:43+01:00</time>
      </trkpt>
      <trkpt lat="43.42714" lon="3.03509">
        <ele>142</ele>
        <time>2024-02-29T13:33:13+01:00</time>
      </trkpt>
      <trkpt lat="43.42716" lon="3.03463">
        <ele>143</ele>
        <time>2024-02-29T13:33:38+01:00</time>
      </trkpt>
      <trkpt lat="43.42731" lon="3.03437">
        <ele>144</ele>
        <time>2024-02-29T13:34:20+01:00</time>
      </trkpt>
      <trkpt lat="43.42737" lon="3.03406">
        <ele>144</ele>
        <time>2024-02-29T13:34:40+01:00</time>
      </trkpt>
      <trkpt lat="43.42743" lon="3.0337">
        <ele>145</ele>
        <time>2024-02-29T13:34:59+01:00</time>
      </trkpt>
      <trkpt lat="43.42731" lon="3.03335">
        <ele>146</ele>
        <time>2024-02-29T13:35:23+01:00</time>
      </trkpt>
      <trkpt lat="43.42724" lon="3.03299">
        <ele>147</ele>
        <time>2024-02-29T13:35:48+01:00</time>
      </trkpt>
      <trkpt lat="43.42722" lon="3.03264">
        <ele>148</ele>
        <time>2024-02-29T13:36:13+01:00</time>
      </trkpt>
      <trkpt lat="43.42728" lon="3.03233">
        <ele>149</ele>
        <time>2024-02-29T13:36:39+01:00</time>
      </trkpt>
      <trkpt lat="43.42745" lon="3.03211">
        <ele>149</ele>
        <time>2024-02-29T13:37:27+01:00</time>
      </trkpt>
      <trkpt lat="43.42768" lon="3.03208">
        <ele>149</ele>
        <time>2024-02-29T13:38:18+01:00</time>
      </trkpt>
      <trkpt lat="43.42791" lon="3.03209">
        <ele>148</ele>
        <time>2024-02-29T13:38:36+01:00</time>
      </trkpt>
      <trkpt lat="43.42796" lon="3.03177">
        <ele>151</ele>
        <time>2024-02-29T13:39:56+01:00</time>
      </trkpt>
      <trkpt lat="43.42788" lon="3.03133">
        <ele>161</ele>
        <time>2024-02-29T13:40:34+01:00</time>
      </trkpt>
      <trkpt lat="43.42817" lon="3.0314">
        <ele>154</ele>
        <time>2024-02-29T13:41:01+01:00</time>
      </trkpt>
      <trkpt lat="43.42833" lon="3.03112">
        <ele>150</ele>
        <time>2024-02-29T13:41:42+01:00</time>
      </trkpt>
      <trkpt lat="43.42851" lon="3.03082">
        <ele>147</ele>
        <time>2024-02-29T13:42:17+01:00</time>
      </trkpt>
      <trkpt lat="43.4286" lon="3.03048">
        <ele>147</ele>
        <time>2024-02-29T13:42:43+01:00</time>
      </trkpt>
      <trkpt lat="43.42883" lon="3.0303">
        <ele>146</ele>
        <time>2024-02-29T13:43:12+01:00</time>
      </trkpt>
      <trkpt lat="43.42904" lon="3.03014">
        <ele>145</ele>
        <time>2024-02-29T13:43:41+01:00</time>
      </trkpt>
      <trkpt lat="43.42927" lon="3.03007">
        <ele>145</ele>
        <time>2024-02-29T13:44:01+01:00</time>
      </trkpt>
      <trkpt lat="43.4295" lon="3.03007">
        <ele>146</ele>
        <time>2024-02-29T13:44:31+01:00</time>
      </trkpt>
      <trkpt lat="43.42981" lon="3.03001">
        <ele>148</ele>
        <time>2024-02-29T13:44:57+01:00</time>
      </trkpt>
      <trkpt lat="43.43004" lon="3.02996">
        <ele>149</ele>
        <time>2024-02-29T13:45:28+01:00</time>
      </trkpt>
      <trkpt lat="43.43029" lon="3.02987">
        <ele>152</ele>
        <time>2024-02-29T13:45:52+01:00</time>
      </trkpt>
      <trkpt lat="43.43053" lon="3.02982">
        <ele>155</ele>
        <time>2024-02-29T13:46:13+01:00</time>
      </trkpt>
      <trkpt lat="43.43079" lon="3.0299">
        <ele>158</ele>
        <time>2024-02-29T13:46:49+01:00</time>
      </trkpt>
      <trkpt lat="43.43088" lon="3.0302">
        <ele>159</ele>
        <time>2024-02-29T13:48:23+01:00</time>
      </trkpt>
      <trkpt lat="43.43116" lon="3.03044">
        <ele>163</ele>
        <time>2024-02-29T13:49:03+01:00</time>
      </trkpt>
      <trkpt lat="43.43142" lon="3.03039">
        <ele>169</ele>
        <time>2024-02-29T13:49:46+01:00</time>
      </trkpt>
      <trkpt lat="43.43164" lon="3.03018">
        <ele>173</ele>
        <time>2024-02-29T13:50:36+01:00</time>
      </trkpt>
      <trkpt lat="43.43178" lon="3.02985">
        <ele>176</ele>
        <time>2024-02-29T13:51:08+01:00</time>
      </trkpt>
      <trkpt lat="43.43197" lon="3.02962">
        <ele>180</ele>
        <time>2024-02-29T13:51:59+01:00</time>
      </trkpt>
      <trkpt lat="43.43224" lon="3.02966">
        <ele>188</ele>
        <time>2024-02-29T13:52:45+01:00</time>
      </trkpt>
      <trkpt lat="43.43246" lon="3.02953">
        <ele>191</ele>
        <time>2024-02-29T13:54:02+01:00</time>
      </trkpt>
      <trkpt lat="43.43257" lon="3.02912">
        <ele>193</ele>
        <time>2024-02-29T13:57:08+01:00</time>
      </trkpt>
      <trkpt lat="43.43279" lon="3.02927">
        <ele>190</ele>
        <time>2024-02-29T13:57:45+01:00</time>
      </trkpt>
      <trkpt lat="43.43285" lon="3.02896">
        <ele>194</ele>
        <time>2024-02-29T13:58:51+01:00</time>
      </trkpt>
      <trkpt lat="43.4331" lon="3.02878">
        <ele>199</ele>
        <time>2024-02-29T13:59:09+01:00</time>
      </trkpt>
      <trkpt lat="43.43334" lon="3.02892">
        <ele>204</ele>
        <time>2024-02-29T13:59:33+01:00</time>
      </trkpt>
      <trkpt lat="43.43362" lon="3.02896">
        <ele>204</ele>
        <time>2024-02-29T14:00:04+01:00</time>
      </trkpt>
      <trkpt lat="43.43386" lon="3.0289">
        <ele>208</ele>
        <time>2024-02-29T14:00:28+01:00</time>
      </trkpt>
      <trkpt lat="43.43426" lon="3.02873">
        <ele>213</ele>
        <time>2024-02-29T14:01:04+01:00</time>
      </trkpt>
      <trkpt lat="43.43451" lon="3.02869">
        <ele>217</ele>
        <time>2024-02-29T14:01:35+01:00</time>
      </trkpt>
      <trkpt lat="43.43477" lon="3.02861">
        <ele>219</ele>
        <time>2024-02-29T14:01:54+01:00</time>
      </trkpt>
      <trkpt lat="43.43495" lon="3.02838">
        <ele>217</ele>
        <time>2024-02-29T14:04:23+01:00</time>
      </trkpt>
      <trkpt lat="43.43518" lon="3.02831">
        <ele>211</ele>
        <time>2024-02-29T14:04:59+01:00</time>
      </trkpt>
      <trkpt lat="43.43539" lon="3.02846">
        <ele>208</ele>
        <time>2024-02-29T14:05:23+01:00</time>
      </trkpt>
      <trkpt lat="43.4356" lon="3.02863">
        <ele>204</ele>
        <time>2024-02-29T14:05:43+01:00</time>
      </trkpt>
      <trkpt lat="43.43573" lon="3.02896">
        <ele>202</ele>
        <time>2024-02-29T14:06:20+01:00</time>
      </trkpt>
      <trkpt lat="43.43591" lon="3.02929">
        <ele>200</ele>
        <time>2024-02-29T14:06:42+01:00</time>
      </trkpt>
      <trkpt lat="43.43603" lon="3.02976">
        <ele>200</ele>
        <time>2024-02-29T14:07:32+01:00</time>
      </trkpt>
      <trkpt lat="43.43613" lon="3.03009">
        <ele>199</ele>
        <time>2024-02-29T14:07:50+01:00</time>
      </trkpt>
      <trkpt lat="43.43613" lon="3.0305">
        <ele>200</ele>
        <time>2024-02-29T14:08:22+01:00</time>
      </trkpt>
      <trkpt lat="43.43618" lon="3.03082">
        <ele>199</ele>
        <time>2024-02-29T14:08:50+01:00</time>
      </trkpt>
      <trkpt lat="43.43619" lon="3.03113">
        <ele>200</ele>
        <time>2024-02-29T14:09:19+01:00</time>
      </trkpt>
      <trkpt lat="43.43633" lon="3.03141">
        <ele>197</ele>
        <time>2024-02-29T14:09:33+01:00</time>
      </trkpt>
      <trkpt lat="43.43645" lon="3.0317">
        <ele>193</ele>
        <time>2024-02-29T14:09:57+01:00</time>
      </trkpt>
      <trkpt lat="43.43652" lon="3.032">
        <ele>193</ele>
        <time>2024-02-29T14:10:26+01:00</time>
      </trkpt>
      <trkpt lat="43.43664" lon="3.03232">
        <ele>191</ele>
        <time>2024-02-29T14:10:46+01:00</time>
      </trkpt>
      <trkpt lat="43.43679" lon="3.03259">
        <ele>190</ele>
        <time>2024-02-29T14:11:11+01:00</time>
      </trkpt>
      <trkpt lat="43.43685" lon="3.03289">
        <ele>189</ele>
        <time>2024-02-29T14:11:35+01:00</time>
      </trkpt>
      <trkpt lat="43.43692" lon="3.03324">
        <ele>188</ele>
        <time>2024-02-29T14:12:00+01:00</time>
      </trkpt>
      <trkpt lat="43.43692" lon="3.0336">
        <ele>186</ele>
        <time>2024-02-29T14:12:25+01:00</time>
      </trkpt>
      <trkpt lat="43.43691" lon="3.03396">
        <ele>186</ele>
        <time>2024-02-29T14:12:44+01:00</time>
      </trkpt>
      <trkpt lat="43.43691" lon="3.03436">
        <ele>185</ele>
        <time>2024-02-29T14:13:08+01:00</time>
      </trkpt>
      <trkpt lat="43.4369" lon="3.03471">
        <ele>185</ele>
        <time>2024-02-29T14:13:33+01:00</time>
      </trkpt>
      <trkpt lat="43.43676" lon="3.03495">
        <ele>187</ele>
        <time>2024-02-29T14:13:51+01:00</time>
      </trkpt>
      <trkpt lat="43.43668" lon="3.03531">
        <ele>188</ele>
        <time>2024-02-29T14:14:15+01:00</time>
      </trkpt>
      <trkpt lat="43.4366" lon="3.03572">
        <ele>189</ele>
        <time>2024-02-29T14:14:40+01:00</time>
      </trkpt>
      <trkpt lat="43.43661" lon="3.03611">
        <ele>186</ele>
        <time>2024-02-29T14:15:04+01:00</time>
      </trkpt>
      <trkpt lat="43.43651" lon="3.03646">
        <ele>186</ele>
        <time>2024-02-29T14:15:29+01:00</time>
      </trkpt>
      <trkpt lat="43.43663" lon="3.03686">
        <ele>182</ele>
        <time>2024-02-29T14:15:52+01:00</time>
      </trkpt>
      <trkpt lat="43.43664" lon="3.03725">
        <ele>181</ele>
        <time>2024-02-29T14:16:23+01:00</time>
      </trkpt>
      <trkpt lat="43.43669" lon="3.03756">
        <ele>179</ele>
        <time>2024-02-29T14:16:41+01:00</time>
      </trkpt>
      <trkpt lat="43.43677" lon="3.03797">
        <ele>176</ele>
        <time>2024-02-29T14:17:05+01:00</time>
      </trkpt>
      <trkpt lat="43.43679" lon="3.03835">
        <ele>176</ele>
        <time>2024-02-29T14:17:54+01:00</time>
      </trkpt>
      <trkpt lat="43.43685" lon="3.03874">
        <ele>175</ele>
        <time>2024-02-29T14:18:24+01:00</time>
      </trkpt>
      <trkpt lat="43.4369" lon="3.03911">
        <ele>176</ele>
        <time>2024-02-29T14:18:48+01:00</time>
      </trkpt>
      <trkpt lat="43.43695" lon="3.0395">
        <ele>175</ele>
        <time>2024-02-29T14:19:18+01:00</time>
      </trkpt>
      <trkpt lat="43.437" lon="3.03982">
        <ele>174</ele>
        <time>2024-02-29T14:19:36+01:00</time>
      </trkpt>
      <trkpt lat="43.43704" lon="3.04016">
        <ele>171</ele>
        <time>2024-02-29T14:19:54+01:00</time>
      </trkpt>
      <trkpt lat="43.4371" lon="3.0405">
        <ele>167</ele>
        <time>2024-02-29T14:20:18+01:00</time>
      </trkpt>
      <trkpt lat="43.43706" lon="3.04085">
        <ele>167</ele>
        <time>2024-02-29T14:20:42+01:00</time>
      </trkpt>
      <trkpt lat="43.43709" lon="3.04118">
        <ele>163</ele>
        <time>2024-02-29T14:21:07+01:00</time>
      </trkpt>
      <trkpt lat="43.43728" lon="3.04147">
        <ele>161</ele>
        <time>2024-02-29T14:21:36+01:00</time>
      </trkpt>
      <trkpt lat="43.43749" lon="3.04175">
        <ele>163</ele>
        <time>2024-02-29T14:21:55+01:00</time>
      </trkpt>
      <trkpt lat="43.43754" lon="3.04207">
        <ele>164</ele>
        <time>2024-02-29T14:24:41+01:00</time>
      </trkpt>
      <trkpt lat="43.43755" lon="3.04244">
        <ele>162</ele>
        <time>2024-02-29T14:25:19+01:00</time>
      </trkpt>
      <trkpt lat="43.43764" lon="3.0428">
        <ele>163</ele>
        <time>2024-02-29T14:25:49+01:00</time>
      </trkpt>
      <trkpt lat="43.43776" lon="3.04308">
        <ele>163</ele>
        <time>2024-02-29T14:26:07+01:00</time>
      </trkpt>
      <trkpt lat="43.43788" lon="3.04341">
        <ele>162</ele>
        <time>2024-02-29T14:26:32+01:00</time>
      </trkpt>
      <trkpt lat="43.43809" lon="3.04384">
        <ele>161</ele>
        <time>2024-02-29T14:26:58+01:00</time>
      </trkpt>
      <trkpt lat="43.43832" lon="3.04402">
        <ele>164</ele>
        <time>2024-02-29T14:27:27+01:00</time>
      </trkpt>
      <trkpt lat="43.43846" lon="3.04435">
        <ele>163</ele>
        <time>2024-02-29T14:27:52+01:00</time>
      </trkpt>
      <trkpt lat="43.43855" lon="3.04469">
        <ele>160</ele>
        <time>2024-02-29T14:28:16+01:00</time>
      </trkpt>
      <trkpt lat="43.43866" lon="3.04496">
        <ele>159</ele>
        <time>2024-02-29T14:28:35+01:00</time>
      </trkpt>
      <trkpt lat="43.43874" lon="3.04529">
        <ele>157</ele>
        <time>2024-02-29T14:29:00+01:00</time>
      </trkpt>
      <trkpt lat="43.43885" lon="3.04568">
        <ele>154</ele>
        <time>2024-02-29T14:29:25+01:00</time>
      </trkpt>
      <trkpt lat="43.43899" lon="3.04603">
        <ele>154</ele>
        <time>2024-02-29T14:29:54+01:00</time>
      </trkpt>
      <trkpt lat="43.43906" lon="3.04638">
        <ele>152</ele>
        <time>2024-02-29T14:30:18+01:00</time>
      </trkpt>
      <trkpt lat="43.43923" lon="3.04672">
        <ele>152</ele>
        <time>2024-02-29T14:30:43+01:00</time>
      </trkpt>
      <trkpt lat="43.43938" lon="3.04705">
        <ele>154</ele>
        <time>2024-02-29T14:31:07+01:00</time>
      </trkpt>
      <trkpt lat="43.43949" lon="3.0474">
        <ele>152</ele>
        <time>2024-02-29T14:31:34+01:00</time>
      </trkpt>
      <trkpt lat="43.43959" lon="3.04771">
        <ele>149</ele>
        <time>2024-02-29T14:31:58+01:00</time>
      </trkpt>
      <trkpt lat="43.43934" lon="3.0477">
        <ele>147</ele>
        <time>2024-02-29T14:32:29+01:00</time>
      </trkpt>
      <trkpt lat="43.43915" lon="3.0479">
        <ele>146</ele>
        <time>2024-02-29T14:32:54+01:00</time>
      </trkpt>
      <trkpt lat="43.43889" lon="3.04807">
        <ele>147</ele>
        <time>2024-02-29T14:33:18+01:00</time>
      </trkpt>
      <trkpt lat="43.43871" lon="3.04832">
        <ele>149</ele>
        <time>2024-02-29T14:33:37+01:00</time>
      </trkpt>
      <trkpt lat="43.43865" lon="3.04864">
        <ele>149</ele>
        <time>2024-02-29T14:34:06+01:00</time>
      </trkpt>
      <trkpt lat="43.43846" lon="3.04883">
        <ele>152</ele>
        <time>2024-02-29T14:34:51+01:00</time>
      </trkpt>
      <trkpt lat="43.43826" lon="3.04904">
        <ele>154</ele>
        <time>2024-02-29T14:35:21+01:00</time>
      </trkpt>
      <trkpt lat="43.43819" lon="3.04935">
        <ele>153</ele>
        <time>2024-02-29T14:36:24+01:00</time>
      </trkpt>
      <trkpt lat="43.43813" lon="3.04967">
        <ele>153</ele>
        <time>2024-02-29T14:37:38+01:00</time>
      </trkpt>
      <trkpt lat="43.43817" lon="3.05007">
        <ele>151</ele>
        <time>2024-02-29T14:38:32+01:00</time>
      </trkpt>
      <trkpt lat="43.43822" lon="3.05038">
        <ele>151</ele>
        <time>2024-02-29T14:38:56+01:00</time>
      </trkpt>
      <trkpt lat="43.43838" lon="3.0507">
        <ele>152</ele>
        <time>2024-02-29T14:39:21+01:00</time>
      </trkpt>
      <trkpt lat="43.43846" lon="3.05106">
        <ele>155</ele>
        <time>2024-02-29T14:39:57+01:00</time>
      </trkpt>
      <trkpt lat="43.43848" lon="3.05138">
        <ele>157</ele>
        <time>2024-02-29T14:40:22+01:00</time>
      </trkpt>
      <trkpt lat="43.43859" lon="3.05171">
        <ele>159</ele>
        <time>2024-02-29T14:40:52+01:00</time>
      </trkpt>
      <trkpt lat="43.43866" lon="3.05203">
        <ele>160</ele>
        <time>2024-02-29T14:42:05+01:00</time>
      </trkpt>
      <trkpt lat="43.43869" lon="3.05236">
        <ele>162</ele>
        <time>2024-02-29T14:42:29+01:00</time>
      </trkpt>
      <trkpt lat="43.43877" lon="3.05279">
        <ele>163</ele>
        <time>2024-02-29T14:43:00+01:00</time>
      </trkpt>
      <trkpt lat="43.43881" lon="3.0531">
        <ele>163</ele>
        <time>2024-02-29T14:43:18+01:00</time>
      </trkpt>
      <trkpt lat="43.43884" lon="3.05341">
        <ele>164</ele>
        <time>2024-02-29T14:43:42+01:00</time>
      </trkpt>
      <trkpt lat="43.43886" lon="3.05375">
        <ele>166</ele>
        <time>2024-02-29T14:44:12+01:00</time>
      </trkpt>
      <trkpt lat="43.43878" lon="3.05404">
        <ele>171</ele>
        <time>2024-02-29T14:44:41+01:00</time>
      </trkpt>
      <trkpt lat="43.43895" lon="3.05433">
        <ele>169</ele>
        <time>2024-02-29T14:45:33+01:00</time>
      </trkpt>
      <trkpt lat="43.43899" lon="3.05473">
        <ele>171</ele>
        <time>2024-02-29T14:46:15+01:00</time>
      </trkpt>
      <trkpt lat="43.43906" lon="3.0551">
        <ele>171</ele>
        <time>2024-02-29T14:49:33+01:00</time>
      </trkpt>
      <trkpt lat="43.43919" lon="3.05544">
        <ele>169</ele>
        <time>2024-02-29T14:50:44+01:00</time>
      </trkpt>
      <trkpt lat="43.43909" lon="3.05586">
        <ele>173</ele>
        <time>2024-02-29T14:51:52+01:00</time>
      </trkpt>
      <trkpt lat="43.43899" lon="3.05617">
        <ele>176</ele>
        <time>2024-02-29T14:52:16+01:00</time>
      </trkpt>
      <trkpt lat="43.43884" lon="3.05651">
        <ele>179</ele>
        <time>2024-02-29T14:52:35+01:00</time>
      </trkpt>
      <trkpt lat="43.43874" lon="3.05683">
        <ele>179</ele>
        <time>2024-02-29T14:53:11+01:00</time>
      </trkpt>
      <trkpt lat="43.43867" lon="3.05728">
        <ele>177</ele>
        <time>2024-02-29T14:53:35+01:00</time>
      </trkpt>
      <trkpt lat="43.43865" lon="3.0577">
        <ele>175</ele>
        <time>2024-02-29T14:53:59+01:00</time>
      </trkpt>
      <trkpt lat="43.43861" lon="3.05808">
        <ele>174</ele>
        <time>2024-02-29T14:54:29+01:00</time>
      </trkpt>
      <trkpt lat="43.43848" lon="3.05837">
        <ele>176</ele>
        <time>2024-02-29T14:54:53+01:00</time>
      </trkpt>
      <trkpt lat="43.43837" lon="3.05865">
        <ele>176</ele>
        <time>2024-02-29T14:55:18+01:00</time>
      </trkpt>
      <trkpt lat="43.43825" lon="3.05893">
        <ele>173</ele>
        <time>2024-02-29T14:55:43+01:00</time>
      </trkpt>
      <trkpt lat="43.43812" lon="3.05929">
        <ele>171</ele>
        <time>2024-02-29T14:56:07+01:00</time>
      </trkpt>
      <trkpt lat="43.43804" lon="3.05967">
        <ele>168</ele>
        <time>2024-02-29T14:56:37+01:00</time>
      </trkpt>
      <trkpt lat="43.43805" lon="3.06">
        <ele>167</ele>
        <time>2024-02-29T14:56:55+01:00</time>
      </trkpt>
      <trkpt lat="43.43819" lon="3.06026">
        <ele>165</ele>
        <time>2024-02-29T14:57:20+01:00</time>
      </trkpt>
      <trkpt lat="43.43838" lon="3.06044">
        <ele>162</ele>
        <time>2024-02-29T14:57:49+01:00</time>
      </trkpt>
      <trkpt lat="43.43845" lon="3.06012">
        <ele>162</ele>
        <time>2024-02-29T14:58:33+01:00</time>
      </trkpt>
      <trkpt lat="43.43862" lon="3.05987">
        <ele>160</ele>
        <time>2024-02-29T14:58:57+01:00</time>
      </trkpt>
      <trkpt lat="43.4388" lon="3.06011">
        <ele>157</ele>
        <time>2024-02-29T15:07:03+01:00</time>
      </trkpt>
      <trkpt lat="43.43892" lon="3.06042">
        <ele>154</ele>
        <time>2024-02-29T15:07:30+01:00</time>
      </trkpt>
      <trkpt lat="43.43897" lon="3.06072">
        <ele>154</ele>
        <time>2024-02-29T15:07:51+01:00</time>
      </trkpt>
      <trkpt lat="43.43908" lon="3.06109">
        <ele>154</ele>
        <time>2024-02-29T15:08:21+01:00</time>
      </trkpt>
      <trkpt lat="43.43916" lon="3.06143">
        <ele>154</ele>
        <time>2024-02-29T15:08:51+01:00</time>
      </trkpt>
      <trkpt lat="43.43906" lon="3.06174">
        <ele>153</ele>
        <time>2024-02-29T15:09:51+01:00</time>
      </trkpt>
      <trkpt lat="43.43915" lon="3.06203">
        <ele>155</ele>
        <time>2024-02-29T15:10:26+01:00</time>
      </trkpt>
      <trkpt lat="43.43898" lon="3.06225">
        <ele>154</ele>
        <time>2024-02-29T15:10:52+01:00</time>
      </trkpt>
      <trkpt lat="43.43884" lon="3.06256">
        <ele>153</ele>
        <time>2024-02-29T15:11:16+01:00</time>
      </trkpt>
      <trkpt lat="43.43886" lon="3.06295">
        <ele>156</ele>
        <time>2024-02-29T15:11:42+01:00</time>
      </trkpt>
      <trkpt lat="43.43874" lon="3.06324">
        <ele>151</ele>
        <time>2024-02-29T15:12:14+01:00</time>
      </trkpt>
      <trkpt lat="43.4386" lon="3.06352">
        <ele>147</ele>
        <time>2024-02-29T15:12:45+01:00</time>
      </trkpt>
      <trkpt lat="43.43862" lon="3.06388">
        <ele>149</ele>
        <time>2024-02-29T15:13:18+01:00</time>
      </trkpt>
      <trkpt lat="43.43854" lon="3.06427">
        <ele>142</ele>
        <time>2024-02-29T15:15:03+01:00</time>
      </trkpt>
      <trkpt lat="43.43849" lon="3.06463">
        <ele>137</ele>
        <time>2024-02-29T15:15:38+01:00</time>
      </trkpt>
      <trkpt lat="43.43819" lon="3.06478">
        <ele>138</ele>
        <time>2024-02-29T15:16:10+01:00</time>
      </trkpt>
      <trkpt lat="43.43791" lon="3.06491">
        <ele>134</ele>
        <time>2024-02-29T15:17:12+01:00</time>
      </trkpt>
      <trkpt lat="43.43767" lon="3.06481">
        <ele>129</ele>
        <time>2024-02-29T15:17:41+01:00</time>
      </trkpt>
      <trkpt lat="43.4374" lon="3.06485">
        <ele>121</ele>
        <time>2024-02-29T15:18:24+01:00</time>
      </trkpt>
      <trkpt lat="43.43735" lon="3.06517">
        <ele>120</ele>
        <time>2024-02-29T15:18:54+01:00</time>
      </trkpt>
      <trkpt lat="43.43754" lon="3.06537">
        <ele>120</ele>
        <time>2024-02-29T15:19:24+01:00</time>
      </trkpt>
      <trkpt lat="43.43775" lon="3.06558">
        <ele>117</ele>
        <time>2024-02-29T15:19:49+01:00</time>
      </trkpt>
      <trkpt lat="43.43795" lon="3.06574">
        <ele>112</ele>
        <time>2024-02-29T15:20:08+01:00</time>
      </trkpt>
      <trkpt lat="43.43818" lon="3.0658">
        <ele>110</ele>
        <time>2024-02-29T15:20:40+01:00</time>
      </trkpt>
      <trkpt lat="43.43818" lon="3.06616">
        <ele>102</ele>
        <time>2024-02-29T15:21:27+01:00</time>
      </trkpt>
      <trkpt lat="43.43837" lon="3.06639">
        <ele>101</ele>
        <time>2024-02-29T15:22:28+01:00</time>
      </trkpt>
      <trkpt lat="43.43853" lon="3.06662">
        <ele>98</ele>
        <time>2024-02-29T15:22:57+01:00</time>
      </trkpt>
      <trkpt lat="43.43887" lon="3.06678">
        <ele>95</ele>
        <time>2024-02-29T15:23:40+01:00</time>
      </trkpt>
      <trkpt lat="43.43909" lon="3.06685">
        <ele>89</ele>
        <time>2024-02-29T15:24:06+01:00</time>
      </trkpt>
      <trkpt lat="43.4393" lon="3.06664">
        <ele>86</ele>
        <time>2024-02-29T15:24:36+01:00</time>
      </trkpt>
      <trkpt lat="43.43947" lon="3.06639">
        <ele>86</ele>
        <time>2024-02-29T15:25:11+01:00</time>
      </trkpt>
      <trkpt lat="43.43972" lon="3.06632">
        <ele>81</ele>
        <time>2024-02-29T15:25:43+01:00</time>
      </trkpt>
      <trkpt lat="43.4399" lon="3.06651">
        <ele>80</ele>
        <time>2024-02-29T15:26:13+01:00</time>
      </trkpt>
      <trkpt lat="43.44008" lon="3.06676">
        <ele>76</ele>
        <time>2024-02-29T15:26:34+01:00</time>
      </trkpt>
      <trkpt lat="43.44024" lon="3.06702">
        <ele>72</ele>
        <time>2024-02-29T15:27:11+01:00</time>
      </trkpt>
      <trkpt lat="43.4404" lon="3.06728">
        <ele>67</ele>
        <time>2024-02-29T15:27:42+01:00</time>
      </trkpt>
      <trkpt lat="43.44063" lon="3.06725">
        <ele>65</ele>
        <time>2024-02-29T15:28:31+01:00</time>
      </trkpt>
      <trkpt lat="43.44048" lon="3.06755">
        <ele>62</ele>
        <time>2024-02-29T15:29:06+01:00</time>
      </trkpt>
      <trkpt lat="43.44061" lon="3.06782">
        <ele>59</ele>
        <time>2024-02-29T15:29:48+01:00</time>
      </trkpt>
      <trkpt lat="43.44072" lon="3.06814">
        <ele>57</ele>
        <time>2024-02-29T15:30:32+01:00</time>
      </trkpt>
      <trkpt lat="43.44054" lon="3.06844">
        <ele>55</ele>
        <time>2024-02-29T15:31:26+01:00</time>
      </trkpt>
      <trkpt lat="43.4406" lon="3.06881">
        <ele>54</ele>
        <time>2024-02-29T15:32:48+01:00</time>
      </trkpt>
      <trkpt lat="43.44039" lon="3.06897">
        <ele>54</ele>
        <time>2024-02-29T15:33:25+01:00</time>
      </trkpt>
      <trkpt lat="43.44019" lon="3.06912">
        <ele>55</ele>
        <time>2024-02-29T15:33:45+01:00</time>
      </trkpt>
      <trkpt lat="43.43999" lon="3.06946">
        <ele>54</ele>
        <time>2024-02-29T15:34:22+01:00</time>
      </trkpt>
      <trkpt lat="43.43983" lon="3.06974">
        <ele>54</ele>
        <time>2024-02-29T15:34:46+01:00</time>
      </trkpt>
      <trkpt lat="43.43961" lon="3.0699">
        <ele>54</ele>
        <time>2024-02-29T15:35:11+01:00</time>
      </trkpt>
      <trkpt lat="43.43947" lon="3.07014">
        <ele>54</ele>
        <time>2024-02-29T15:35:35+01:00</time>
      </trkpt>
      <trkpt lat="43.43928" lon="3.07038">
        <ele>55</ele>
        <time>2024-02-29T15:36:05+01:00</time>
      </trkpt>
      <trkpt lat="43.43909" lon="3.07068">
        <ele>55</ele>
        <time>2024-02-29T15:36:30+01:00</time>
      </trkpt>
      <trkpt lat="43.4389" lon="3.07099">
        <ele>55</ele>
        <time>2024-02-29T15:36:55+01:00</time>
      </trkpt>
      <trkpt lat="43.43869" lon="3.0712">
        <ele>55</ele>
        <time>2024-02-29T15:37:20+01:00</time>
      </trkpt>
      <trkpt lat="43.43843" lon="3.07129">
        <ele>54</ele>
        <time>2024-02-29T15:37:55+01:00</time>
      </trkpt>
      <trkpt lat="43.43816" lon="3.07143">
        <ele>54</ele>
        <time>2024-02-29T15:38:26+01:00</time>
      </trkpt>
      <trkpt lat="43.43793" lon="3.07157">
        <ele>54</ele>
        <time>2024-02-29T15:38:50+01:00</time>
      </trkpt>
      <trkpt lat="43.43766" lon="3.07151">
        <ele>54</ele>
        <time>2024-02-29T15:39:19+01:00</time>
      </trkpt>
      <trkpt lat="43.43743" lon="3.07157">
        <ele>52</ele>
        <time>2024-02-29T15:39:39+01:00</time>
      </trkpt>
      <trkpt lat="43.43713" lon="3.07164">
        <ele>52</ele>
        <time>2024-02-29T15:41:29+01:00</time>
      </trkpt>
      <trkpt lat="43.43713" lon="3.07204">
        <ele>53</ele>
        <time>2024-02-29T15:42:04+01:00</time>
      </trkpt>
      <trkpt lat="43.437" lon="3.07176">
        <ele>53</ele>
        <time>2024-02-29T15:42:36+01:00</time>
      </trkpt>
    </trkseg>
  </trk>
</gpx>